sensor_id;sensor_type;location;lat;lon;timestamp;P1;durP1;ratioP1;P2;durP2;ratioP2
74849;SDS011;63397;47.480;19.238;2023-12-07T00:01:38;3.50;;;1.83;;
74849;SDS011;63397;47.480;19.238;2023-12-07T00:04:40;2.57;;;0.90;;
74849;SDS011;63397;47.480;19.238;2023-12-07T00:07:43;2.63;;;1.37;;
74849;SDS011;63397;47.480;19.238;2023-12-07T00:10:45;2.40;;;1.23;;
74849;SDS011;63397;47.480;19.238;2023-12-07T00:13:47;5.05;;;1.83;;
74849;SDS011;63397;47.480;19.238;2023-12-07T00:16:50;3.88;;;0.93;;
74849;SDS011;63397;47.480;19.238;2023-12-07T00:19:52;3.73;;;1.73;;
74849;SDS011;63397;47.480;19.238;2023-12-07T00:22:58;4.07;;;1.13;;
74849;SDS011;63397;47.480;19.238;2023-12-07T00:26:00;2.00;;;1.15;;
74849;SDS011;63397;47.480;19.238;2023-12-07T00:29:02;5.30;;;1.73;;
74849;SDS011;63397;47.480;19.238;2023-12-07T00:32:04;4.10;;;1.55;;
74849;SDS011;63397;47.480;19.238;2023-12-07T00:35:07;5.43;;;1.80;;
74849;SDS011;63397;47.480;19.238;2023-12-07T00:38:10;3.33;;;1.03;;
74849;SDS011;63397;47.480;19.238;2023-12-07T00:41:12;2.58;;;1.23;;
74849;SDS011;63397;47.480;19.238;2023-12-07T00:44:15;1.95;;;0.98;;
74849;SDS011;63397;47.480;19.238;2023-12-07T00:47:17;2.45;;;1.05;;
74849;SDS011;63397;47.480;19.238;2023-12-07T00:50:19;2.67;;;1.50;;
74849;SDS011;63397;47.480;19.238;2023-12-07T00:53:22;2.03;;;1.07;;
74849;SDS011;63397;47.480;19.238;2023-12-07T00:56:24;1.45;;;0.47;;
74849;SDS011;63397;47.480;19.238;2023-12-07T00:59:26;2.35;;;1.15;;
74849;SDS011;63397;47.480;19.238;2023-12-07T01:02:28;3.78;;;1.73;;
74849;SDS011;63397;47.480;19.238;2023-12-07T01:05:31;2.13;;;1.10;;
74849;SDS011;63397;47.480;19.238;2023-12-07T01:08:33;3.17;;;1.83;;
74849;SDS011;63397;47.480;19.238;2023-12-07T01:11:36;3.47;;;0.93;;
74849;SDS011;63397;47.480;19.238;2023-12-07T01:14:38;1.98;;;1.08;;
74849;SDS011;63397;47.480;19.238;2023-12-07T01:17:40;4.38;;;1.50;;
74849;SDS011;63397;47.480;19.238;2023-12-07T01:20:42;4.53;;;1.60;;
74849;SDS011;63397;47.480;19.238;2023-12-07T01:23:45;3.47;;;1.37;;
74849;SDS011;63397;47.480;19.238;2023-12-07T01:26:47;2.95;;;1.27;;
74849;SDS011;63397;47.480;19.238;2023-12-07T01:29:49;2.15;;;1.13;;
74849;SDS011;63397;47.480;19.238;2023-12-07T01:32:51;2.28;;;1.25;;
74849;SDS011;63397;47.480;19.238;2023-12-07T01:35:54;1.23;;;0.67;;
74849;SDS011;63397;47.480;19.238;2023-12-07T01:38:56;4.57;;;1.30;;
74849;SDS011;63397;47.480;19.238;2023-12-07T01:41:58;3.72;;;1.23;;
74849;SDS011;63397;47.480;19.238;2023-12-07T01:45:01;1.75;;;1.05;;
74849;SDS011;63397;47.480;19.238;2023-12-07T01:48:03;3.72;;;1.92;;
74849;SDS011;63397;47.480;19.238;2023-12-07T01:51:06;0.50;;;0.50;;
74849;SDS011;63397;47.480;19.238;2023-12-07T01:54:08;2.33;;;1.07;;
74849;SDS011;63397;47.480;19.238;2023-12-07T01:57:11;1.13;;;0.70;;
74849;SDS011;63397;47.480;19.238;2023-12-07T02:00:13;1.83;;;0.57;;
74849;SDS011;63397;47.480;19.238;2023-12-07T02:03:16;3.42;;;0.98;;
74849;SDS011;63397;47.480;19.238;2023-12-07T02:06:18;1.13;;;0.70;;
74849;SDS011;63397;47.480;19.238;2023-12-07T02:09:22;0.67;;;0.47;;
74849;SDS011;63397;47.480;19.238;2023-12-07T02:12:24;2.70;;;1.20;;
74849;SDS011;63397;47.480;19.238;2023-12-07T02:15:27;1.85;;;0.85;;
74849;SDS011;63397;47.480;19.238;2023-12-07T02:18:38;1.45;;;0.63;;
74849;SDS011;63397;47.480;19.238;2023-12-07T02:21:43;0.97;;;0.60;;
74849;SDS011;63397;47.480;19.238;2023-12-07T02:25:06;2.43;;;1.00;;
74849;SDS011;63397;47.480;19.238;2023-12-07T02:28:12;0.65;;;0.20;;
74849;SDS011;63397;47.480;19.238;2023-12-07T02:31:14;1.70;;;0.60;;
74849;SDS011;63397;47.480;19.238;2023-12-07T02:34:17;1.05;;;0.70;;
74849;SDS011;63397;47.480;19.238;2023-12-07T02:37:19;2.00;;;0.50;;
74849;SDS011;63397;47.480;19.238;2023-12-07T02:40:24;1.73;;;0.60;;
74849;SDS011;63397;47.480;19.238;2023-12-07T02:43:27;2.03;;;0.82;;
74849;SDS011;63397;47.480;19.238;2023-12-07T02:46:30;2.95;;;0.68;;
74849;SDS011;63397;47.480;19.238;2023-12-07T02:49:32;1.38;;;0.80;;
74849;SDS011;63397;47.480;19.238;2023-12-07T02:52:34;0.77;;;0.43;;
74849;SDS011;63397;47.480;19.238;2023-12-07T02:55:37;2.10;;;0.90;;
74849;SDS011;63397;47.480;19.238;2023-12-07T02:58:39;0.85;;;0.30;;
74849;SDS011;63397;47.480;19.238;2023-12-07T03:01:41;2.65;;;1.15;;
74849;SDS011;63397;47.480;19.238;2023-12-07T03:04:44;0.82;;;0.63;;
74849;SDS011;63397;47.480;19.238;2023-12-07T03:07:46;1.07;;;0.70;;
74849;SDS011;63397;47.480;19.238;2023-12-07T03:10:48;3.17;;;1.13;;
74849;SDS011;63397;47.480;19.238;2023-12-07T03:13:51;0.75;;;0.50;;
74849;SDS011;63397;47.480;19.238;2023-12-07T03:16:53;2.33;;;0.60;;
74849;SDS011;63397;47.480;19.238;2023-12-07T03:19:55;2.13;;;0.55;;
74849;SDS011;63397;47.480;19.238;2023-12-07T03:22:58;1.10;;;0.40;;
74849;SDS011;63397;47.480;19.238;2023-12-07T03:26:00;0.97;;;0.50;;
74849;SDS011;63397;47.480;19.238;2023-12-07T03:29:02;2.33;;;1.27;;
74849;SDS011;63397;47.480;19.238;2023-12-07T03:32:04;2.22;;;1.33;;
74849;SDS011;63397;47.480;19.238;2023-12-07T03:35:07;1.15;;;0.30;;
74849;SDS011;63397;47.480;19.238;2023-12-07T03:38:09;1.17;;;0.63;;
74849;SDS011;63397;47.480;19.238;2023-12-07T03:41:11;1.07;;;0.40;;
74849;SDS011;63397;47.480;19.238;2023-12-07T03:44:14;0.85;;;0.30;;
74849;SDS011;63397;47.480;19.238;2023-12-07T03:47:16;1.98;;;0.85;;
74849;SDS011;63397;47.480;19.238;2023-12-07T03:50:18;1.35;;;0.85;;
74849;SDS011;63397;47.480;19.238;2023-12-07T03:53:20;0.90;;;0.60;;
74849;SDS011;63397;47.480;19.238;2023-12-07T03:56:26;0.53;;;0.33;;
74849;SDS011;63397;47.480;19.238;2023-12-07T03:59:29;1.30;;;0.45;;
74849;SDS011;63397;47.480;19.238;2023-12-07T04:02:32;2.17;;;0.73;;
74849;SDS011;63397;47.480;19.238;2023-12-07T04:05:35;0.75;;;0.38;;
74849;SDS011;63397;47.480;19.238;2023-12-07T04:08:37;1.63;;;0.90;;
74849;SDS011;63397;47.480;19.238;2023-12-07T04:11:39;2.03;;;0.70;;
74849;SDS011;63397;47.480;19.238;2023-12-07T04:14:41;1.75;;;0.70;;
74849;SDS011;63397;47.480;19.238;2023-12-07T04:17:44;0.73;;;0.38;;
74849;SDS011;63397;47.480;19.238;2023-12-07T04:20:46;2.28;;;0.60;;
74849;SDS011;63397;47.480;19.238;2023-12-07T04:23:48;0.77;;;0.53;;
74849;SDS011;63397;47.480;19.238;2023-12-07T04:26:51;2.47;;;0.50;;
74849;SDS011;63397;47.480;19.238;2023-12-07T04:29:53;2.25;;;0.98;;
74849;SDS011;63397;47.480;19.238;2023-12-07T04:32:55;1.75;;;0.80;;
74849;SDS011;63397;47.480;19.238;2023-12-07T04:35:58;1.13;;;0.63;;
74849;SDS011;63397;47.480;19.238;2023-12-07T04:39:00;3.17;;;1.67;;
74849;SDS011;63397;47.480;19.238;2023-12-07T04:42:03;1.93;;;0.83;;
74849;SDS011;63397;47.480;19.238;2023-12-07T04:45:05;2.00;;;0.85;;
74849;SDS011;63397;47.480;19.238;2023-12-07T04:48:07;1.75;;;1.00;;
74849;SDS011;63397;47.480;19.238;2023-12-07T04:51:10;1.23;;;0.60;;
74849;SDS011;63397;47.480;19.238;2023-12-07T04:54:12;2.90;;;1.23;;
74849;SDS011;63397;47.480;19.238;2023-12-07T04:57:21;3.83;;;0.57;;
74849;SDS011;63397;47.480;19.238;2023-12-07T05:00:23;2.50;;;1.00;;
74849;SDS011;63397;47.480;19.238;2023-12-07T05:03:25;2.80;;;1.40;;
74849;SDS011;63397;47.480;19.238;2023-12-07T05:06:28;3.20;;;1.42;;
74849;SDS011;63397;47.480;19.238;2023-12-07T05:09:30;2.47;;;1.20;;
74849;SDS011;63397;47.480;19.238;2023-12-07T05:12:33;3.37;;;1.60;;
74849;SDS011;63397;47.480;19.238;2023-12-07T05:15:35;1.38;;;0.95;;
74849;SDS011;63397;47.480;19.238;2023-12-07T05:18:37;2.17;;;1.30;;
74849;SDS011;63397;47.480;19.238;2023-12-07T05:21:40;3.63;;;2.05;;
74849;SDS011;63397;47.480;19.238;2023-12-07T05:24:42;4.50;;;1.63;;
74849;SDS011;63397;47.480;19.238;2023-12-07T05:27:44;2.40;;;1.53;;
74849;SDS011;63397;47.480;19.238;2023-12-07T05:30:47;5.05;;;1.67;;
74849;SDS011;63397;47.480;19.238;2023-12-07T05:33:49;4.03;;;1.70;;
74849;SDS011;63397;47.480;19.238;2023-12-07T05:36:51;2.15;;;1.25;;
74849;SDS011;63397;47.480;19.238;2023-12-07T05:39:53;4.70;;;1.73;;
74849;SDS011;63397;47.480;19.238;2023-12-07T05:42:56;4.97;;;2.33;;
74849;SDS011;63397;47.480;19.238;2023-12-07T05:45:58;3.63;;;1.98;;
74849;SDS011;63397;47.480;19.238;2023-12-07T05:49:01;4.57;;;1.33;;
74849;SDS011;63397;47.480;19.238;2023-12-07T05:52:04;3.08;;;1.58;;
74849;SDS011;63397;47.480;19.238;2023-12-07T05:55:06;4.43;;;1.60;;
74849;SDS011;63397;47.480;19.238;2023-12-07T05:58:09;3.37;;;1.47;;
74849;SDS011;63397;47.480;19.238;2023-12-07T06:01:12;3.28;;;0.93;;
74849;SDS011;63397;47.480;19.238;2023-12-07T06:04:14;3.30;;;1.60;;
74849;SDS011;63397;47.480;19.238;2023-12-07T06:07:18;2.58;;;1.42;;
74849;SDS011;63397;47.480;19.238;2023-12-07T06:10:20;2.37;;;1.33;;
74849;SDS011;63397;47.480;19.238;2023-12-07T06:13:22;4.40;;;1.30;;
74849;SDS011;63397;47.480;19.238;2023-12-07T06:16:26;2.05;;;1.02;;
74849;SDS011;63397;47.480;19.238;2023-12-07T06:19:28;3.42;;;1.38;;
74849;SDS011;63397;47.480;19.238;2023-12-07T06:22:31;2.63;;;1.25;;
74849;SDS011;63397;47.480;19.238;2023-12-07T06:25:33;2.37;;;1.70;;
74849;SDS011;63397;47.480;19.238;2023-12-07T06:28:35;4.70;;;2.10;;
74849;SDS011;63397;47.480;19.238;2023-12-07T06:31:42;3.65;;;1.55;;
74849;SDS011;63397;47.480;19.238;2023-12-07T06:34:45;4.72;;;1.92;;
74849;SDS011;63397;47.480;19.238;2023-12-07T06:37:48;3.45;;;1.58;;
74849;SDS011;63397;47.480;19.238;2023-12-07T06:40:52;3.77;;;2.07;;
74849;SDS011;63397;47.480;19.238;2023-12-07T06:43:54;6.43;;;1.73;;
74849;SDS011;63397;47.480;19.238;2023-12-07T06:47:00;5.38;;;2.33;;
74849;SDS011;63397;47.480;19.238;2023-12-07T06:50:05;5.80;;;1.83;;
74849;SDS011;63397;47.480;19.238;2023-12-07T06:53:10;2.35;;;0.90;;
74849;SDS011;63397;47.480;19.238;2023-12-07T06:56:12;2.17;;;1.23;;
74849;SDS011;63397;47.480;19.238;2023-12-07T06:59:15;3.43;;;1.60;;
74849;SDS011;63397;47.480;19.238;2023-12-07T07:02:17;2.65;;;1.38;;
74849;SDS011;63397;47.480;19.238;2023-12-07T07:05:23;2.70;;;1.13;;
74849;SDS011;63397;47.480;19.238;2023-12-07T07:08:26;6.10;;;2.15;;
74849;SDS011;63397;47.480;19.238;2023-12-07T07:11:29;2.00;;;1.20;;
74849;SDS011;63397;47.480;19.238;2023-12-07T07:14:34;4.90;;;1.50;;
74849;SDS011;63397;47.480;19.238;2023-12-07T07:17:36;3.40;;;1.35;;
74849;SDS011;63397;47.480;19.238;2023-12-07T07:20:39;4.38;;;2.00;;
74849;SDS011;63397;47.480;19.238;2023-12-07T07:23:41;2.75;;;1.27;;
74849;SDS011;63397;47.480;19.238;2023-12-07T07:26:44;1.93;;;1.07;;
74849;SDS011;63397;47.480;19.238;2023-12-07T07:29:46;2.80;;;1.23;;
74849;SDS011;63397;47.480;19.238;2023-12-07T07:32:49;2.42;;;1.40;;
74849;SDS011;63397;47.480;19.238;2023-12-07T07:35:52;1.77;;;1.05;;
74849;SDS011;63397;47.480;19.238;2023-12-07T07:38:56;3.25;;;1.35;;
74849;SDS011;63397;47.480;19.238;2023-12-07T07:41:59;4.87;;;1.47;;
74849;SDS011;63397;47.480;19.238;2023-12-07T07:45:02;3.57;;;1.70;;
74849;SDS011;63397;47.480;19.238;2023-12-07T07:48:04;5.85;;;1.77;;
74849;SDS011;63397;47.480;19.238;2023-12-07T07:51:07;9.73;;;2.28;;
74849;SDS011;63397;47.480;19.238;2023-12-07T07:54:10;6.05;;;2.55;;
74849;SDS011;63397;47.480;19.238;2023-12-07T07:57:12;1.60;;;0.87;;
74849;SDS011;63397;47.480;19.238;2023-12-07T08:00:14;2.93;;;1.37;;
74849;SDS011;63397;47.480;19.238;2023-12-07T08:03:17;3.45;;;1.42;;
74849;SDS011;63397;47.480;19.238;2023-12-07T08:06:19;3.13;;;1.45;;
74849;SDS011;63397;47.480;19.238;2023-12-07T08:09:22;5.28;;;1.20;;
74849;SDS011;63397;47.480;19.238;2023-12-07T08:12:25;3.17;;;1.73;;
74849;SDS011;63397;47.480;19.238;2023-12-07T08:15:27;5.23;;;1.23;;
74849;SDS011;63397;47.480;19.238;2023-12-07T08:18:30;3.95;;;1.50;;
74849;SDS011;63397;47.480;19.238;2023-12-07T08:21:32;4.57;;;1.63;;
74849;SDS011;63397;47.480;19.238;2023-12-07T08:24:34;5.40;;;1.23;;
74849;SDS011;63397;47.480;19.238;2023-12-07T08:27:37;4.07;;;1.80;;
74849;SDS011;63397;47.480;19.238;2023-12-07T08:30:41;3.53;;;1.77;;
74849;SDS011;63397;47.480;19.238;2023-12-07T08:33:44;4.13;;;1.98;;
74849;SDS011;63397;47.480;19.238;2023-12-07T08:36:46;4.45;;;2.13;;
74849;SDS011;63397;47.480;19.238;2023-12-07T08:39:50;2.58;;;1.67;;
74849;SDS011;63397;47.480;19.238;2023-12-07T08:42:54;4.87;;;2.27;;
74849;SDS011;63397;47.480;19.238;2023-12-07T08:45:56;3.23;;;1.47;;
74849;SDS011;63397;47.480;19.238;2023-12-07T08:49:02;2.65;;;1.52;;
74849;SDS011;63397;47.480;19.238;2023-12-07T08:52:05;4.22;;;1.85;;
74849;SDS011;63397;47.480;19.238;2023-12-07T08:55:28;2.45;;;0.98;;
74849;SDS011;63397;47.480;19.238;2023-12-07T08:58:31;5.73;;;2.50;;
74849;SDS011;63397;47.480;19.238;2023-12-07T09:01:34;4.87;;;2.10;;
74849;SDS011;63397;47.480;19.238;2023-12-07T09:04:37;7.20;;;2.45;;
74849;SDS011;63397;47.480;19.238;2023-12-07T09:07:41;4.88;;;1.92;;
74849;SDS011;63397;47.480;19.238;2023-12-07T09:10:44;4.20;;;2.22;;
74849;SDS011;63397;47.480;19.238;2023-12-07T09:13:46;3.77;;;1.10;;
74849;SDS011;63397;47.480;19.238;2023-12-07T09:16:49;2.53;;;1.93;;
74849;SDS011;63397;47.480;19.238;2023-12-07T09:19:51;2.92;;;1.85;;
74849;SDS011;63397;47.480;19.238;2023-12-07T09:22:53;3.28;;;1.17;;
74849;SDS011;63397;47.480;19.238;2023-12-07T09:25:57;3.15;;;1.52;;
74849;SDS011;63397;47.480;19.238;2023-12-07T09:28:59;5.43;;;2.43;;
74849;SDS011;63397;47.480;19.238;2023-12-07T09:32:02;4.30;;;2.30;;
74849;SDS011;63397;47.480;19.238;2023-12-07T09:35:04;3.70;;;2.20;;
74849;SDS011;63397;47.480;19.238;2023-12-07T09:38:08;5.78;;;2.70;;
74849;SDS011;63397;47.480;19.238;2023-12-07T09:41:11;4.22;;;2.53;;
74849;SDS011;63397;47.480;19.238;2023-12-07T09:44:13;7.27;;;2.37;;
74849;SDS011;63397;47.480;19.238;2023-12-07T09:47:16;5.70;;;2.53;;
74849;SDS011;63397;47.480;19.238;2023-12-07T09:50:30;2.80;;;1.60;;
74849;SDS011;63397;47.480;19.238;2023-12-07T09:53:35;6.93;;;3.30;;
74849;SDS011;63397;47.480;19.238;2023-12-07T09:56:43;4.82;;;2.20;;
74849;SDS011;63397;47.480;19.238;2023-12-07T09:59:48;5.67;;;2.23;;
74849;SDS011;63397;47.480;19.238;2023-12-07T10:02:51;4.03;;;2.23;;
74849;SDS011;63397;47.480;19.238;2023-12-07T10:05:59;2.85;;;1.50;;
74849;SDS011;63397;47.480;19.238;2023-12-07T10:09:03;7.47;;;2.35;;
74849;SDS011;63397;47.480;19.238;2023-12-07T10:12:05;4.93;;;2.05;;
74849;SDS011;63397;47.480;19.238;2023-12-07T10:15:15;5.27;;;2.73;;
74849;SDS011;63397;47.480;19.238;2023-12-07T10:18:22;4.10;;;2.00;;
74849;SDS011;63397;47.480;19.238;2023-12-07T10:21:31;5.75;;;2.00;;
74849;SDS011;63397;47.480;19.238;2023-12-07T10:24:34;6.82;;;2.97;;
74849;SDS011;63397;47.480;19.238;2023-12-07T10:27:38;4.63;;;2.80;;
74849;SDS011;63397;47.480;19.238;2023-12-07T10:30:40;6.80;;;2.70;;
74849;SDS011;63397;47.480;19.238;2023-12-07T10:33:51;5.80;;;2.80;;
74849;SDS011;63397;47.480;19.238;2023-12-07T10:36:54;12.50;;;4.43;;
74849;SDS011;63397;47.480;19.238;2023-12-07T10:39:58;6.78;;;2.80;;
74849;SDS011;63397;47.480;19.238;2023-12-07T10:43:00;5.63;;;3.17;;
74849;SDS011;63397;47.480;19.238;2023-12-07T10:46:07;7.13;;;2.60;;
74849;SDS011;63397;47.480;19.238;2023-12-07T10:49:11;6.40;;;4.43;;
74849;SDS011;63397;47.480;19.238;2023-12-07T10:52:26;6.50;;;3.67;;
74849;SDS011;63397;47.480;19.238;2023-12-07T10:55:29;10.57;;;4.30;;
74849;SDS011;63397;47.480;19.238;2023-12-07T10:58:36;6.53;;;3.10;;
74849;SDS011;63397;47.480;19.238;2023-12-07T11:01:40;8.77;;;3.73;;
74849;SDS011;63397;47.480;19.238;2023-12-07T11:04:42;8.20;;;4.60;;
74849;SDS011;63397;47.480;19.238;2023-12-07T11:08:03;5.93;;;3.10;;
74849;SDS011;63397;47.480;19.238;2023-12-07T11:11:28;6.43;;;3.53;;
74849;SDS011;63397;47.480;19.238;2023-12-07T11:14:32;10.23;;;3.70;;
74849;SDS011;63397;47.480;19.238;2023-12-07T11:18:08;10.43;;;4.37;;
74849;SDS011;63397;47.480;19.238;2023-12-07T11:21:04;10.80;;;5.50;;
74849;SDS011;63397;47.480;19.238;2023-12-07T11:24:06;7.03;;;4.15;;
74849;SDS011;63397;47.480;19.238;2023-12-07T11:27:08;10.40;;;5.28;;
74849;SDS011;63397;47.480;19.238;2023-12-07T11:30:11;9.82;;;3.10;;
74849;SDS011;63397;47.480;19.238;2023-12-07T11:33:14;8.37;;;4.43;;
74849;SDS011;63397;47.480;19.238;2023-12-07T11:36:17;8.57;;;4.43;;
74849;SDS011;63397;47.480;19.238;2023-12-07T11:39:19;8.07;;;2.97;;
74849;SDS011;63397;47.480;19.238;2023-12-07T11:42:30;9.48;;;4.63;;
74849;SDS011;63397;47.480;19.238;2023-12-07T11:45:36;11.90;;;4.00;;
74849;SDS011;63397;47.480;19.238;2023-12-07T11:48:39;7.10;;;3.63;;
74849;SDS011;63397;47.480;19.238;2023-12-07T11:51:42;7.70;;;3.90;;
74849;SDS011;63397;47.480;19.238;2023-12-07T11:54:48;9.07;;;4.15;;
74849;SDS011;63397;47.480;19.238;2023-12-07T11:57:50;6.70;;;3.15;;
74849;SDS011;63397;47.480;19.238;2023-12-07T12:00:53;8.35;;;4.63;;
74849;SDS011;63397;47.480;19.238;2023-12-07T12:03:56;8.43;;;3.83;;
74849;SDS011;63397;47.480;19.238;2023-12-07T12:06:58;7.77;;;3.33;;
74849;SDS011;63397;47.480;19.238;2023-12-07T12:10:04;11.07;;;4.82;;
74849;SDS011;63397;47.480;19.238;2023-12-07T12:13:07;7.80;;;3.85;;
74849;SDS011;63397;47.480;19.238;2023-12-07T12:16:10;9.02;;;4.45;;
74849;SDS011;63397;47.480;19.238;2023-12-07T12:19:13;11.47;;;3.70;;
74849;SDS011;63397;47.480;19.238;2023-12-07T12:22:27;10.97;;;4.47;;
74849;SDS011;63397;47.480;19.238;2023-12-07T12:25:30;10.60;;;4.65;;
74849;SDS011;63397;47.480;19.238;2023-12-07T12:28:33;10.75;;;5.20;;
74849;SDS011;63397;47.480;19.238;2023-12-07T12:31:38;9.10;;;4.20;;
74849;SDS011;63397;47.480;19.238;2023-12-07T12:34:40;10.00;;;4.93;;
74849;SDS011;63397;47.480;19.238;2023-12-07T12:37:44;7.43;;;3.50;;
74849;SDS011;63397;47.480;19.238;2023-12-07T12:40:46;8.90;;;5.32;;
74849;SDS011;63397;47.480;19.238;2023-12-07T12:43:52;8.00;;;4.10;;
74849;SDS011;63397;47.480;19.238;2023-12-07T12:46:54;6.65;;;3.00;;
74849;SDS011;63397;47.480;19.238;2023-12-07T12:49:56;7.47;;;4.03;;
74849;SDS011;63397;47.480;19.238;2023-12-07T12:52:59;8.80;;;3.43;;
74849;SDS011;63397;47.480;19.238;2023-12-07T12:56:02;6.80;;;2.85;;
74849;SDS011;63397;47.480;19.238;2023-12-07T12:59:05;7.38;;;3.25;;
74849;SDS011;63397;47.480;19.238;2023-12-07T13:02:11;5.82;;;3.42;;
74849;SDS011;63397;47.480;19.238;2023-12-07T13:05:13;7.30;;;3.53;;
74849;SDS011;63397;47.480;19.238;2023-12-07T13:08:16;5.67;;;3.23;;
74849;SDS011;63397;47.480;19.238;2023-12-07T13:11:19;4.53;;;2.53;;
74849;SDS011;63397;47.480;19.238;2023-12-07T13:14:22;7.22;;;3.25;;
74849;SDS011;63397;47.480;19.238;2023-12-07T13:17:24;4.40;;;2.47;;
74849;SDS011;63397;47.480;19.238;2023-12-07T13:20:27;5.37;;;2.47;;
74849;SDS011;63397;47.480;19.238;2023-12-07T13:23:31;5.37;;;2.43;;
74849;SDS011;63397;47.480;19.238;2023-12-07T13:26:35;4.38;;;2.47;;
74849;SDS011;63397;47.480;19.238;2023-12-07T13:29:37;6.80;;;3.08;;
74849;SDS011;63397;47.480;19.238;2023-12-07T13:32:40;13.10;;;2.85;;
74849;SDS011;63397;47.480;19.238;2023-12-07T13:35:42;4.43;;;2.27;;
74849;SDS011;63397;47.480;19.238;2023-12-07T13:38:45;6.50;;;2.70;;
74849;SDS011;63397;47.480;19.238;2023-12-07T13:41:49;5.07;;;2.97;;
74849;SDS011;63397;47.480;19.238;2023-12-07T13:44:53;7.68;;;3.90;;
74849;SDS011;63397;47.480;19.238;2023-12-07T13:47:55;8.60;;;3.60;;
74849;SDS011;63397;47.480;19.238;2023-12-07T13:50:58;6.10;;;3.17;;
74849;SDS011;63397;47.480;19.238;2023-12-07T13:54:00;7.13;;;4.03;;
74849;SDS011;63397;47.480;19.238;2023-12-07T13:57:02;6.93;;;3.03;;
74849;SDS011;63397;47.480;19.238;2023-12-07T14:00:05;5.50;;;2.92;;
74849;SDS011;63397;47.480;19.238;2023-12-07T14:03:08;5.70;;;2.70;;
74849;SDS011;63397;47.480;19.238;2023-12-07T14:06:10;5.37;;;1.80;;
74849;SDS011;63397;47.480;19.238;2023-12-07T14:09:25;8.23;;;3.67;;
74849;SDS011;63397;47.480;19.238;2023-12-07T14:12:28;7.72;;;3.58;;
74849;SDS011;63397;47.480;19.238;2023-12-07T14:15:31;7.45;;;3.78;;
74849;SDS011;63397;47.480;19.238;2023-12-07T14:18:46;6.32;;;3.30;;
74849;SDS011;63397;47.480;19.238;2023-12-07T14:22:06;7.33;;;3.97;;
74849;SDS011;63397;47.480;19.238;2023-12-07T14:25:10;6.40;;;3.20;;
74849;SDS011;63397;47.480;19.238;2023-12-07T14:28:12;5.88;;;3.45;;
74849;SDS011;63397;47.480;19.238;2023-12-07T14:31:15;6.57;;;3.45;;
74849;SDS011;63397;47.480;19.238;2023-12-07T14:34:18;8.70;;;3.88;;
74849;SDS011;63397;47.480;19.238;2023-12-07T14:37:34;6.30;;;3.33;;
74849;SDS011;63397;47.480;19.238;2023-12-07T14:40:36;6.43;;;3.47;;
74849;SDS011;63397;47.480;19.238;2023-12-07T14:43:38;6.18;;;3.67;;
74849;SDS011;63397;47.480;19.238;2023-12-07T14:46:44;9.68;;;4.88;;
74849;SDS011;63397;47.480;19.238;2023-12-07T14:49:46;5.07;;;2.88;;
74849;SDS011;63397;47.480;19.238;2023-12-07T14:52:48;12.50;;;6.07;;
74849;SDS011;63397;47.480;19.238;2023-12-07T14:55:51;6.73;;;4.13;;
74849;SDS011;63397;47.480;19.238;2023-12-07T14:58:54;8.68;;;5.35;;
74849;SDS011;63397;47.480;19.238;2023-12-07T15:01:56;10.15;;;4.90;;
74849;SDS011;63397;47.480;19.238;2023-12-07T15:04:58;11.27;;;5.88;;
74849;SDS011;63397;47.480;19.238;2023-12-07T15:08:00;8.80;;;5.70;;
74849;SDS011;63397;47.480;19.238;2023-12-07T15:11:03;11.33;;;4.67;;
74849;SDS011;63397;47.480;19.238;2023-12-07T15:14:05;15.75;;;6.88;;
74849;SDS011;63397;47.480;19.238;2023-12-07T15:17:09;11.23;;;6.82;;
74849;SDS011;63397;47.480;19.238;2023-12-07T15:20:11;13.75;;;7.40;;
74849;SDS011;63397;47.480;19.238;2023-12-07T15:23:13;7.97;;;4.37;;
74849;SDS011;63397;47.480;19.238;2023-12-07T15:26:16;8.03;;;5.40;;
74849;SDS011;63397;47.480;19.238;2023-12-07T15:29:18;10.02;;;5.13;;
74849;SDS011;63397;47.480;19.238;2023-12-07T15:32:21;8.32;;;3.60;;
74849;SDS011;63397;47.480;19.238;2023-12-07T15:35:24;7.30;;;4.20;;
74849;SDS011;63397;47.480;19.238;2023-12-07T15:38:27;9.63;;;4.93;;
74849;SDS011;63397;47.480;19.238;2023-12-07T15:41:29;10.73;;;5.07;;
74849;SDS011;63397;47.480;19.238;2023-12-07T15:44:31;10.65;;;5.00;;
74849;SDS011;63397;47.480;19.238;2023-12-07T15:47:34;8.88;;;4.95;;
74849;SDS011;63397;47.480;19.238;2023-12-07T15:50:37;9.48;;;4.47;;
74849;SDS011;63397;47.480;19.238;2023-12-07T15:53:39;10.07;;;4.50;;
74849;SDS011;63397;47.480;19.238;2023-12-07T15:56:42;9.70;;;4.70;;
74849;SDS011;63397;47.480;19.238;2023-12-07T15:59:46;10.15;;;5.55;;
74849;SDS011;63397;47.480;19.238;2023-12-07T16:02:48;14.30;;;6.72;;
74849;SDS011;63397;47.480;19.238;2023-12-07T16:05:50;13.80;;;6.35;;
74849;SDS011;63397;47.480;19.238;2023-12-07T16:08:53;14.93;;;5.43;;
74849;SDS011;63397;47.480;19.238;2023-12-07T16:11:55;12.67;;;5.40;;
74849;SDS011;63397;47.480;19.238;2023-12-07T16:14:58;12.57;;;5.93;;
74849;SDS011;63397;47.480;19.238;2023-12-07T16:18:01;18.02;;;7.75;;
74849;SDS011;63397;47.480;19.238;2023-12-07T16:21:03;16.88;;;6.68;;
74849;SDS011;63397;47.480;19.238;2023-12-07T16:24:05;11.23;;;6.80;;
74849;SDS011;63397;47.480;19.238;2023-12-07T16:27:08;11.50;;;6.87;;
74849;SDS011;63397;47.480;19.238;2023-12-07T16:30:10;16.30;;;7.75;;
74849;SDS011;63397;47.480;19.238;2023-12-07T16:33:16;13.75;;;7.47;;
74849;SDS011;63397;47.480;19.238;2023-12-07T16:36:19;13.48;;;7.03;;
74849;SDS011;63397;47.480;19.238;2023-12-07T16:39:24;14.67;;;8.03;;
74849;SDS011;63397;47.480;19.238;2023-12-07T16:42:29;19.50;;;7.40;;
74849;SDS011;63397;47.480;19.238;2023-12-07T16:45:32;14.63;;;9.00;;
74849;SDS011;63397;47.480;19.238;2023-12-07T16:48:36;18.25;;;8.57;;
74849;SDS011;63397;47.480;19.238;2023-12-07T16:51:39;16.27;;;7.97;;
74849;SDS011;63397;47.480;19.238;2023-12-07T16:54:41;24.90;;;11.17;;
74849;SDS011;63397;47.480;19.238;2023-12-07T16:57:44;19.30;;;9.57;;
74849;SDS011;63397;47.480;19.238;2023-12-07T17:00:47;18.63;;;8.23;;
74849;SDS011;63397;47.480;19.238;2023-12-07T17:03:50;16.55;;;7.28;;
74849;SDS011;63397;47.480;19.238;2023-12-07T17:06:52;14.73;;;6.82;;
74849;SDS011;63397;47.480;19.238;2023-12-07T17:09:59;15.13;;;7.17;;
74849;SDS011;63397;47.480;19.238;2023-12-07T17:13:01;16.17;;;8.53;;
74849;SDS011;63397;47.480;19.238;2023-12-07T17:16:04;12.43;;;6.78;;
74849;SDS011;63397;47.480;19.238;2023-12-07T17:19:06;13.10;;;7.28;;
74849;SDS011;63397;47.480;19.238;2023-12-07T17:22:09;14.35;;;6.85;;
74849;SDS011;63397;47.480;19.238;2023-12-07T17:25:11;13.57;;;6.40;;
74849;SDS011;63397;47.480;19.238;2023-12-07T17:28:16;16.47;;;7.10;;
74849;SDS011;63397;47.480;19.238;2023-12-07T17:31:18;11.50;;;6.80;;
74849;SDS011;63397;47.480;19.238;2023-12-07T17:34:21;15.88;;;8.13;;
74849;SDS011;63397;47.480;19.238;2023-12-07T17:37:23;12.48;;;5.85;;
74849;SDS011;63397;47.480;19.238;2023-12-07T17:40:26;10.20;;;5.63;;
74849;SDS011;63397;47.480;19.238;2023-12-07T17:43:28;14.77;;;6.53;;
74849;SDS011;63397;47.480;19.238;2023-12-07T17:46:30;10.57;;;5.18;;
74849;SDS011;63397;47.480;19.238;2023-12-07T17:49:33;12.20;;;5.57;;
74849;SDS011;63397;47.480;19.238;2023-12-07T17:52:35;8.95;;;6.22;;
74849;SDS011;63397;47.480;19.238;2023-12-07T17:55:37;9.77;;;6.13;;
74849;SDS011;63397;47.480;19.238;2023-12-07T17:58:39;11.63;;;5.77;;
74849;SDS011;63397;47.480;19.238;2023-12-07T18:01:42;13.00;;;6.63;;
74849;SDS011;63397;47.480;19.238;2023-12-07T18:04:44;17.42;;;7.30;;